sensor_id;sensor_type;location;lat;lon;timestamp;P1;durP1;ratioP1;P2;durP2;ratioP2
50012;SDS011;35901;48.694;9.476;2023-04-15T00:01:01;7.10;;;5.53;;
50012;SDS011;35901;48.694;9.476;2023-04-15T00:03:27;7.27;;;5.20;;
50012;SDS011;35901;48.694;9.476;2023-04-15T00:05:53;8.00;;;5.63;;
50012;SDS011;35901;48.694;9.476;2023-04-15T00:08:19;7.93;;;6.10;;
50012;SDS011;35901;48.694;9.476;2023-04-15T00:10:44;8.20;;;6.50;;
50012;SDS011;35901;48.694;9.476;2023-04-15T00:13:10;11.00;;;7.97;;
50012;SDS011;35901;48.694;9.476;2023-04-15T00:15:36;11.80;;;7.83;;
50012;SDS011;35901;48.694;9.476;2023-04-15T00:18:02;9.43;;;7.20;;
50012;SDS011;35901;48.694;9.476;2023-04-15T00:20:28;10.87;;;7.50;;
50012;SDS011;35901;48.694;9.476;2023-04-15T00:22:54;10.30;;;7.20;;
50012;SDS011;35901;48.694;9.476;2023-04-15T00:25:19;11.53;;;7.17;;
50012;SDS011;35901;48.694;9.476;2023-04-15T00:27:45;15.53;;;8.97;;
50012;SDS011;35901;48.694;9.476;2023-04-15T00:30:13;14.93;;;9.23;;
50012;SDS011;35901;48.694;9.476;2023-04-15T00:32:39;17.30;;;10.10;;
50012;SDS011;35901;48.694;9.476;2023-04-15T00:35:06;12.37;;;9.10;;
50012;SDS011;35901;48.694;9.476;2023-04-15T00:37:32;10.13;;;8.33;;
50012;SDS011;35901;48.694;9.476;2023-04-15T00:39:59;13.13;;;8.47;;
50012;SDS011;35901;48.694;9.476;2023-04-15T00:42:25;9.47;;;8.03;;
50012;SDS011;35901;48.694;9.476;2023-04-15T00:44:53;11.30;;;7.87;;
50012;SDS011;35901;48.694;9.476;2023-04-15T00:47:20;10.63;;;7.40;;
50012;SDS011;35901;48.694;9.476;2023-04-15T00:49:46;11.00;;;7.40;;
50012;SDS011;35901;48.694;9.476;2023-04-15T00:52:12;9.80;;;7.00;;
50012;SDS011;35901;48.694;9.476;2023-04-15T00:54:38;8.77;;;6.57;;
50012;SDS011;35901;48.694;9.476;2023-04-15T00:57:04;8.37;;;6.87;;
50012;SDS011;35901;48.694;9.476;2023-04-15T00:59:32;9.57;;;7.10;;
50012;SDS011;35901;48.694;9.476;2023-04-15T01:01:58;11.43;;;6.77;;
50012;SDS011;35901;48.694;9.476;2023-04-15T01:04:24;12.17;;;6.83;;
50012;SDS011;35901;48.694;9.476;2023-04-15T01:06:50;9.00;;;5.87;;
50012;SDS011;35901;48.694;9.476;2023-04-15T01:09:16;11.00;;;7.23;;
50012;SDS011;35901;48.694;9.476;2023-04-15T01:11:42;9.33;;;7.10;;
50012;SDS011;35901;48.694;9.476;2023-04-15T01:14:09;9.53;;;7.07;;
50012;SDS011;35901;48.694;9.476;2023-04-15T01:16:38;8.90;;;6.60;;
50012;SDS011;35901;48.694;9.476;2023-04-15T01:19:07;9.63;;;7.27;;
50012;SDS011;35901;48.694;9.476;2023-04-15T01:21:37;12.93;;;8.20;;
50012;SDS011;35901;48.694;9.476;2023-04-15T01:24:07;16.17;;;9.20;;
50012;SDS011;35901;48.694;9.476;2023-04-15T01:26:38;11.47;;;8.97;;
50012;SDS011;35901;48.694;9.476;2023-04-15T01:29:06;15.63;;;11.13;;
50012;SDS011;35901;48.694;9.476;2023-04-15T01:31:32;15.43;;;11.40;;
50012;SDS011;35901;48.694;9.476;2023-04-15T01:33:58;14.97;;;10.87;;
50012;SDS011;35901;48.694;9.476;2023-04-15T01:36:23;14.50;;;9.93;;
50012;SDS011;35901;48.694;9.476;2023-04-15T01:38:52;14.03;;;9.30;;
50012;SDS011;35901;48.694;9.476;2023-04-15T01:41:21;11.77;;;8.37;;
50012;SDS011;35901;48.694;9.476;2023-04-15T01:43:50;10.83;;;8.83;;
50012;SDS011;35901;48.694;9.476;2023-04-15T01:51:07;8.30;;;7.20;;
50012;SDS011;35901;48.694;9.476;2023-04-15T01:53:33;7.27;;;5.70;;
50012;SDS011;35901;48.694;9.476;2023-04-15T01:56:00;11.10;;;7.00;;
50012;SDS011;35901;48.694;9.476;2023-04-15T01:58:26;8.87;;;6.80;;
50012;SDS011;35901;48.694;9.476;2023-04-15T02:00:51;13.97;;;7.90;;
50012;SDS011;35901;48.694;9.476;2023-04-15T02:03:17;14.17;;;8.37;;
50012;SDS011;35901;48.694;9.476;2023-04-15T02:05:43;9.27;;;7.23;;
50012;SDS011;35901;48.694;9.476;2023-04-15T02:08:09;8.70;;;7.73;;
50012;SDS011;35901;48.694;9.476;2023-04-15T02:10:36;8.40;;;7.30;;
50012;SDS011;35901;48.694;9.476;2023-04-15T02:13:03;10.40;;;7.27;;
50012;SDS011;35901;48.694;9.476;2023-04-15T02:15:29;10.47;;;7.80;;
50012;SDS011;35901;48.694;9.476;2023-04-15T02:17:55;10.30;;;7.63;;
50012;SDS011;35901;48.694;9.476;2023-04-15T02:20:21;8.17;;;6.90;;
50012;SDS011;35901;48.694;9.476;2023-04-15T02:22:47;11.43;;;8.30;;
50012;SDS011;35901;48.694;9.476;2023-04-15T02:25:13;11.67;;;9.00;;
50012;SDS011;35901;48.694;9.476;2023-04-15T02:27:41;16.07;;;9.73;;
50012;SDS011;35901;48.694;9.476;2023-04-15T02:30:07;12.27;;;8.80;;
50012;SDS011;35901;48.694;9.476;2023-04-15T02:32:33;13.50;;;9.40;;
50012;SDS011;35901;48.694;9.476;2023-04-15T02:35:05;13.20;;;9.20;;
50012;SDS011;35901;48.694;9.476;2023-04-15T02:37:34;15.07;;;9.47;;
50012;SDS011;35901;48.694;9.476;2023-04-15T02:40:06;10.63;;;8.43;;
50012;SDS011;35901;48.694;9.476;2023-04-15T02:42:34;8.77;;;7.20;;
50012;SDS011;35901;48.694;9.476;2023-04-15T02:45:00;10.50;;;8.20;;
50012;SDS011;35901;48.694;9.476;2023-04-15T02:47:30;10.37;;;8.40;;
50012;SDS011;35901;48.694;9.476;2023-04-15T02:49:56;13.57;;;8.53;;
50012;SDS011;35901;48.694;9.476;2023-04-15T02:52:24;11.83;;;7.83;;
50012;SDS011;35901;48.694;9.476;2023-04-15T02:54:50;13.03;;;8.90;;
50012;SDS011;35901;48.694;9.476;2023-04-15T02:57:16;12.40;;;8.97;;
50012;SDS011;35901;48.694;9.476;2023-04-15T02:59:41;11.30;;;8.27;;
50012;SDS011;35901;48.694;9.476;2023-04-15T03:02:07;15.20;;;10.13;;
50012;SDS011;35901;48.694;9.476;2023-04-15T03:04:32;10.37;;;7.87;;
50012;SDS011;35901;48.694;9.476;2023-04-15T03:06:59;12.00;;;8.17;;
50012;SDS011;35901;48.694;9.476;2023-04-15T03:09:25;10.87;;;7.90;;
50012;SDS011;35901;48.694;9.476;2023-04-15T03:11:52;10.60;;;8.13;;
50012;SDS011;35901;48.694;9.476;2023-04-15T03:14:19;12.97;;;9.20;;
50012;SDS011;35901;48.694;9.476;2023-04-15T03:16:46;12.03;;;9.33;;
50012;SDS011;35901;48.694;9.476;2023-04-15T03:19:14;12.27;;;9.20;;
50012;SDS011;35901;48.694;9.476;2023-04-15T03:21:41;10.30;;;8.43;;
50012;SDS011;35901;48.694;9.476;2023-04-15T03:24:07;11.37;;;8.27;;
50012;SDS011;35901;48.694;9.476;2023-04-15T03:26:33;12.97;;;9.50;;
50012;SDS011;35901;48.694;9.476;2023-04-15T03:29:07;9.17;;;8.10;;
50012;SDS011;35901;48.694;9.476;2023-04-15T03:31:33;10.63;;;8.77;;
50012;SDS011;35901;48.694;9.476;2023-04-15T03:33:58;9.77;;;8.17;;
50012;SDS011;35901;48.694;9.476;2023-04-15T03:36:25;12.73;;;8.43;;
50012;SDS011;35901;48.694;9.476;2023-04-15T03:38:53;10.63;;;7.63;;
50012;SDS011;35901;48.694;9.476;2023-04-15T03:41:19;12.73;;;8.43;;
50012;SDS011;35901;48.694;9.476;2023-04-15T03:43:44;15.87;;;9.93;;
50012;SDS011;35901;48.694;9.476;2023-04-15T03:46:10;14.83;;;10.50;;
50012;SDS011;35901;48.694;9.476;2023-04-15T03:48:35;13.27;;;10.20;;
50012;SDS011;35901;48.694;9.476;2023-04-15T03:51:01;13.23;;;9.90;;
50012;SDS011;35901;48.694;9.476;2023-04-15T03:53:26;12.40;;;9.60;;
50012;SDS011;35901;48.694;9.476;2023-04-15T03:55:52;14.43;;;11.20;;
50012;SDS011;35901;48.694;9.476;2023-04-15T03:58:18;16.73;;;11.47;;
50012;SDS011;35901;48.694;9.476;2023-04-15T04:00:43;12.53;;;9.73;;
50012;SDS011;35901;48.694;9.476;2023-04-15T04:03:09;12.40;;;9.63;;
50012;SDS011;35901;48.694;9.476;2023-04-15T04:05:35;12.57;;;8.90;;
50012;SDS011;35901;48.694;9.476;2023-04-15T04:08:03;12.70;;;10.33;;
50012;SDS011;35901;48.694;9.476;2023-04-15T04:10:28;14.47;;;10.57;;
50012;SDS011;35901;48.694;9.476;2023-04-15T04:12:54;11.33;;;8.20;;
50012;SDS011;35901;48.694;9.476;2023-04-15T04:15:20;12.20;;;10.90;;
50012;SDS011;35901;48.694;9.476;2023-04-15T04:17:45;12.60;;;9.27;;
50012;SDS011;35901;48.694;9.476;2023-04-15T04:20:11;12.90;;;10.10;;
50012;SDS011;35901;48.694;9.476;2023-04-15T04:22:39;16.70;;;11.20;;
50012;SDS011;35901;48.694;9.476;2023-04-15T04:25:06;13.67;;;10.57;;
50012;SDS011;35901;48.694;9.476;2023-04-15T04:27:35;17.47;;;11.70;;
50012;SDS011;35901;48.694;9.476;2023-04-15T04:30:01;13.63;;;10.10;;
50012;SDS011;35901;48.694;9.476;2023-04-15T04:32:27;14.83;;;11.33;;
50012;SDS011;35901;48.694;9.476;2023-04-15T04:34:52;16.77;;;11.67;;
50012;SDS011;35901;48.694;9.476;2023-04-15T04:37:18;17.17;;;12.90;;
50012;SDS011;35901;48.694;9.476;2023-04-15T04:39:44;16.30;;;10.40;;
50012;SDS011;35901;48.694;9.476;2023-04-15T04:42:09;15.00;;;10.30;;
50012;SDS011;35901;48.694;9.476;2023-04-15T04:44:35;14.47;;;10.47;;
50012;SDS011;35901;48.694;9.476;2023-04-15T04:47:01;15.67;;;11.17;;
50012;SDS011;35901;48.694;9.476;2023-04-15T04:49:26;19.67;;;10.73;;
50012;SDS011;35901;48.694;9.476;2023-04-15T04:51:52;15.83;;;10.27;;
50012;SDS011;35901;48.694;9.476;2023-04-15T04:54:18;15.90;;;11.30;;
50012;SDS011;35901;48.694;9.476;2023-04-15T04:56:43;13.53;;;10.73;;
50012;SDS011;35901;48.694;9.476;2023-04-15T04:59:09;12.80;;;10.10;;
50012;SDS011;35901;48.694;9.476;2023-04-15T05:01:35;12.70;;;10.73;;
50012;SDS011;35901;48.694;9.476;2023-04-15T05:04:01;11.73;;;9.70;;
50012;SDS011;35901;48.694;9.476;2023-04-15T05:06:28;14.47;;;10.83;;
50012;SDS011;35901;48.694;9.476;2023-04-15T05:08:55;13.57;;;10.23;;
50012;SDS011;35901;48.694;9.476;2023-04-15T05:11:21;14.17;;;11.07;;
50012;SDS011;35901;48.694;9.476;2023-04-15T05:13:46;10.50;;;9.37;;
50012;SDS011;35901;48.694;9.476;2023-04-15T05:16:12;12.93;;;9.00;;
50012;SDS011;35901;48.694;9.476;2023-04-15T05:18:37;15.63;;;11.13;;
50012;SDS011;35901;48.694;9.476;2023-04-15T05:21:03;11.47;;;9.10;;
50012;SDS011;35901;48.694;9.476;2023-04-15T05:23:29;14.87;;;10.27;;
50012;SDS011;35901;48.694;9.476;2023-04-15T05:25:55;15.33;;;11.13;;
50012;SDS011;35901;48.694;9.476;2023-04-15T05:28:20;20.20;;;12.53;;
50012;SDS011;35901;48.694;9.476;2023-04-15T05:30:46;20.60;;;14.63;;
50012;SDS011;35901;48.694;9.476;2023-04-15T05:33:11;28.03;;;17.47;;
50012;SDS011;35901;48.694;9.476;2023-04-15T05:35:37;31.57;;;20.83;;
50012;SDS011;35901;48.694;9.476;2023-04-15T05:38:03;19.10;;;14.03;;
50012;SDS011;35901;48.694;9.476;2023-04-15T05:40:29;20.90;;;14.23;;
50012;SDS011;35901;48.694;9.476;2023-04-15T05:42:55;20.33;;;13.83;;
50012;SDS011;35901;48.694;9.476;2023-04-15T05:45:21;14.00;;;11.67;;
50012;SDS011;35901;48.694;9.476;2023-04-15T05:47:46;15.50;;;11.33;;
50012;SDS011;35901;48.694;9.476;2023-04-15T05:50:14;14.93;;;10.80;;
50012;SDS011;35901;48.694;9.476;2023-04-15T05:52:40;16.97;;;12.70;;
50012;SDS011;35901;48.694;9.476;2023-04-15T05:55:06;13.47;;;10.57;;
50012;SDS011;35901;48.694;9.476;2023-04-15T05:57:32;11.80;;;9.47;;
50012;SDS011;35901;48.694;9.476;2023-04-15T05:59:58;10.67;;;9.00;;
50012;SDS011;35901;48.694;9.476;2023-04-15T06:02:23;10.53;;;8.10;;
50012;SDS011;35901;48.694;9.476;2023-04-15T06:04:49;9.30;;;8.13;;
50012;SDS011;35901;48.694;9.476;2023-04-15T06:07:14;9.27;;;8.23;;
50012;SDS011;35901;48.694;9.476;2023-04-15T06:09:40;10.07;;;8.83;;
50012;SDS011;35901;48.694;9.476;2023-04-15T06:12:06;19.23;;;13.73;;
50012;SDS011;35901;48.694;9.476;2023-04-15T06:14:36;15.87;;;13.27;;
50012;SDS011;35901;48.694;9.476;2023-04-15T06:17:02;14.50;;;11.77;;
50012;SDS011;35901;48.694;9.476;2023-04-15T06:19:28;11.70;;;8.53;;
50012;SDS011;35901;48.694;9.476;2023-04-15T06:21:53;9.50;;;7.90;;
50012;SDS011;35901;48.694;9.476;2023-04-15T06:24:19;9.77;;;7.50;;
50012;SDS011;35901;48.694;9.476;2023-04-15T06:26:45;7.83;;;7.03;;
50012;SDS011;35901;48.694;9.476;2023-04-15T06:29:10;7.50;;;6.73;;
50012;SDS011;35901;48.694;9.476;2023-04-15T06:31:36;10.23;;;6.77;;
50012;SDS011;35901;48.694;9.476;2023-04-15T06:34:01;8.57;;;6.90;;
50012;SDS011;35901;48.694;9.476;2023-04-15T06:36:27;8.77;;;6.63;;
50012;SDS011;35901;48.694;9.476;2023-04-15T06:38:53;10.03;;;6.80;;
50012;SDS011;35901;48.694;9.476;2023-04-15T06:41:18;9.33;;;6.73;;
50012;SDS011;35901;48.694;9.476;2023-04-15T06:43:44;7.60;;;6.33;;
50012;SDS011;35901;48.694;9.476;2023-04-15T06:46:09;7.37;;;5.73;;
50012;SDS011;35901;48.694;9.476;2023-04-15T06:48:35;7.13;;;5.60;;
50012;SDS011;35901;48.694;9.476;2023-04-15T06:51:01;8.37;;;5.43;;
50012;SDS011;35901;48.694;9.476;2023-04-15T06:53:28;5.73;;;5.23;;
50012;SDS011;35901;48.694;9.476;2023-04-15T06:55:53;6.30;;;5.20;;
50012;SDS011;35901;48.694;9.476;2023-04-15T06:58:19;6.20;;;5.60;;
50012;SDS011;35901;48.694;9.476;2023-04-15T07:00:45;7.23;;;5.60;;
50012;SDS011;35901;48.694;9.476;2023-04-15T07:03:11;6.67;;;5.77;;
50012;SDS011;35901;48.694;9.476;2023-04-15T07:05:37;6.40;;;5.73;;
50012;SDS011;35901;48.694;9.476;2023-04-15T07:08:03;6.23;;;5.27;;
50012;SDS011;35901;48.694;9.476;2023-04-15T07:10:30;6.93;;;5.07;;
50012;SDS011;35901;48.694;9.476;2023-04-15T07:12:56;5.27;;;4.47;;
50012;SDS011;35901;48.694;9.476;2023-04-15T07:15:22;6.17;;;4.53;;
50012;SDS011;35901;48.694;9.476;2023-04-15T07:17:47;7.57;;;4.43;;
50012;SDS011;35901;48.694;9.476;2023-04-15T07:20:13;4.23;;;3.83;;
50012;SDS011;35901;48.694;9.476;2023-04-15T07:22:39;4.27;;;3.73;;
50012;SDS011;35901;48.694;9.476;2023-04-15T07:25:05;6.60;;;4.33;;
50012;SDS011;35901;48.694;9.476;2023-04-15T07:27:31;5.37;;;4.20;;
50012;SDS011;35901;48.694;9.476;2023-04-15T07:29:57;5.23;;;4.17;;
50012;SDS011;35901;48.694;9.476;2023-04-15T07:32:23;4.83;;;3.90;;
50012;SDS011;35901;48.694;9.476;2023-04-15T07:34:48;5.50;;;4.00;;
50012;SDS011;35901;48.694;9.476;2023-04-15T07:37:14;4.60;;;4.10;;
50012;SDS011;35901;48.694;9.476;2023-04-15T07:39:40;6.07;;;3.77;;
50012;SDS011;35901;48.694;9.476;2023-04-15T07:42:05;5.53;;;4.00;;
50012;SDS011;35901;48.694;9.476;2023-04-15T07:44:31;5.17;;;3.87;;
50012;SDS011;35901;48.694;9.476;2023-04-15T07:46:57;5.13;;;3.33;;
50012;SDS011;35901;48.694;9.476;2023-04-15T07:49:22;4.33;;;3.63;;
50012;SDS011;35901;48.694;9.476;2023-04-15T07:51:48;5.80;;;3.97;;
50012;SDS011;35901;48.694;9.476;2023-04-15T07:54:14;7.17;;;4.23;;
50012;SDS011;35901;48.694;9.476;2023-04-15T07:56:40;4.67;;;3.63;;
50012;SDS011;35901;48.694;9.476;2023-04-15T07:59:06;3.63;;;3.30;;
50012;SDS011;35901;48.694;9.476;2023-04-15T08:01:33;5.73;;;3.70;;
50012;SDS011;35901;48.694;9.476;2023-04-15T08:03:59;6.00;;;3.50;;
50012;SDS011;35901;48.694;9.476;2023-04-15T08:06:24;4.30;;;3.50;;
50012;SDS011;35901;48.694;9.476;2023-04-15T08:08:51;6.77;;;3.80;;
50012;SDS011;35901;48.694;9.476;2023-04-15T08:11:18;5.13;;;3.70;;
50012;SDS011;35901;48.694;9.476;2023-04-15T08:13:45;4.53;;;3.57;;
50012;SDS011;35901;48.694;9.476;2023-04-15T08:16:12;5.47;;;3.70;;
50012;SDS011;35901;48.694;9.476;2023-04-15T08:18:49;4.37;;;3.70;;
50012;SDS011;35901;48.694;9.476;2023-04-15T08:21:16;5.37;;;3.73;;
50012;SDS011;35901;48.694;9.476;2023-04-15T08:23:43;4.70;;;3.53;;
50012;SDS011;35901;48.694;9.476;2023-04-15T08:26:10;4.77;;;3.73;;
50012;SDS011;35901;48.694;9.476;2023-04-15T08:28:39;5.47;;;4.27;;
50012;SDS011;35901;48.694;9.476;2023-04-15T08:31:06;5.70;;;3.77;;
50012;SDS011;35901;48.694;9.476;2023-04-15T08:33:32;4.23;;;3.10;;
50012;SDS011;35901;48.694;9.476;2023-04-15T08:35:58;4.97;;;3.40;;
50012;SDS011;35901;48.694;9.476;2023-04-15T08:38:23;5.67;;;3.97;;
50012;SDS011;35901;48.694;9.476;2023-04-15T08:40:49;7.63;;;3.63;;
50012;SDS011;35901;48.694;9.476;2023-04-15T08:43:22;4.10;;;3.23;;
50012;SDS011;35901;48.694;9.476;2023-04-15T08:45:52;4.67;;;3.00;;
50012;SDS011;35901;48.694;9.476;2023-04-15T08:48:19;5.20;;;3.43;;
50012;SDS011;35901;48.694;9.476;2023-04-15T08:50:45;5.43;;;3.07;;
50012;SDS011;35901;48.694;9.476;2023-04-15T08:53:12;5.17;;;3.00;;
50012;SDS011;35901;48.694;9.476;2023-04-15T08:55:40;6.13;;;3.30;;
50012;SDS011;35901;48.694;9.476;2023-04-15T08:58:08;5.43;;;3.50;;
50012;SDS011;35901;48.694;9.476;2023-04-15T09:00:35;3.60;;;2.93;;
50012;SDS011;35901;48.694;9.476;2023-04-15T09:03:02;4.97;;;3.17;;
50012;SDS011;35901;48.694;9.476;2023-04-15T09:05:30;3.70;;;2.80;;
50012;SDS011;35901;48.694;9.476;2023-04-15T09:07:57;3.53;;;2.70;;
50012;SDS011;35901;48.694;9.476;2023-04-15T09:10:23;6.40;;;3.00;;
50012;SDS011;35901;48.694;9.476;2023-04-15T09:12:49;6.77;;;3.17;;
50012;SDS011;35901;48.694;9.476;2023-04-15T09:15:14;4.47;;;2.80;;
50012;SDS011;35901;48.694;9.476;2023-04-15T09:17:44;5.13;;;3.40;;
50012;SDS011;35901;48.694;9.476;2023-04-15T09:20:12;4.40;;;2.77;;
50012;SDS011;35901;48.694;9.476;2023-04-15T09:22:39;7.47;;;5.40;;
50012;SDS011;35901;48.694;9.476;2023-04-15T09:25:27;4.17;;;3.77;;
50012;SDS011;35901;48.694;9.476;2023-04-15T09:27:56;4.63;;;3.20;;
50012;SDS011;35901;48.694;9.476;2023-04-15T09:30:23;5.03;;;3.03;;
50012;SDS011;35901;48.694;9.476;2023-04-15T09:35:16;3.27;;;2.70;;
50012;SDS011;35901;48.694;9.476;2023-04-15T09:37:42;3.83;;;2.83;;
50012;SDS011;35901;48.694;9.476;2023-04-15T09:40:08;5.00;;;2.73;;
50012;SDS011;35901;48.694;9.476;2023-04-15T09:42:34;3.17;;;2.83;;
50012;SDS011;35901;48.694;9.476;2023-04-15T09:45:10;5.03;;;2.87;;
50012;SDS011;35901;48.694;9.476;2023-04-15T09:47:36;5.17;;;3.00;;
50012;SDS011;35901;48.694;9.476;2023-04-15T09:50:02;4.27;;;2.40;;
50012;SDS011;35901;48.694;9.476;2023-04-15T09:52:28;6.03;;;2.67;;
50012;SDS011;35901;48.694;9.476;2023-04-15T09:54:55;4.73;;;2.90;;
50012;SDS011;35901;48.694;9.476;2023-04-15T09:57:23;5.37;;;2.70;;
50012;SDS011;35901;48.694;9.476;2023-04-15T09:59:49;4.17;;;2.63;;
50012;SDS011;35901;48.694;9.476;2023-04-15T10:02:15;4.63;;;2.80;;
50012;SDS011;35901;48.694;9.476;2023-04-15T10:04:44;3.83;;;2.30;;
50012;SDS011;35901;48.694;9.476;2023-04-15T10:07:12;2.10;;;1.80;;
50012;SDS011;35901;48.694;9.476;2023-04-15T10:09:39;3.30;;;2.30;;
50012;SDS011;35901;48.694;9.476;2023-04-15T10:12:05;2.93;;;1.90;;
50012;SDS011;35901;48.694;9.476;2023-04-15T10:14:32;3.70;;;2.00;;
50012;SDS011;35901;48.694;9.476;2023-04-15T10:17:03;3.40;;;2.17;;
50012;SDS011;35901;48.694;9.476;2023-04-15T10:19:33;2.87;;;2.30;;
50012;SDS011;35901;48.694;9.476;2023-04-15T10:22:01;2.27;;;1.83;;
50012;SDS011;35901;48.694;9.476;2023-04-15T10:24:28;4.53;;;2.20;;
50012;SDS011;35901;48.694;9.476;2023-04-15T10:26:56;2.43;;;2.00;;
50012;SDS011;35901;48.694;9.476;2023-04-15T10:29:24;4.43;;;2.10;;
50012;SDS011;35901;48.694;9.476;2023-04-15T10:31:55;3.10;;;2.03;;
50012;SDS011;35901;48.694;9.476;2023-04-15T10:34:23;3.10;;;2.20;;
50012;SDS011;35901;48.694;9.476;2023-04-15T10:36:50;6.07;;;2.40;;
50012;SDS011;35901;48.694;9.476;2023-04-15T10:44:34;6.87;;;2.83;;
50012;SDS011;35901;48.694;9.476;2023-04-15T10:47:03;2.90;;;2.10;;
50012;SDS011;35901;48.694;9.476;2023-04-15T10:49:34;24.80;;;17.87;;
50012;SDS011;35901;48.694;9.476;2023-04-15T10:52:12;6.87;;;4.33;;
50012;SDS011;35901;48.694;9.476;2023-04-15T10:54:39;4.37;;;2.67;;
50012;SDS011;35901;48.694;9.476;2023-04-15T10:57:06;4.37;;;2.60;;
50012;SDS011;35901;48.694;9.476;2023-04-15T10:59:35;3.83;;;2.70;;
50012;SDS011;35901;48.694;9.476;2023-04-15T11:02:03;3.13;;;2.60;;
50012;SDS011;35901;48.694;9.476;2023-04-15T11:12:57;3.70;;;2.30;;
50012;SDS011;35901;48.694;9.476;2023-04-15T11:20:34;3.80;;;2.60;;
50012;SDS011;35901;48.694;9.476;2023-04-15T11:23:00;4.87;;;3.17;;
50012;SDS011;35901;48.694;9.476;2023-04-15T11:25:27;3.60;;;3.07;;
50012;SDS011;35901;48.694;9.476;2023-04-15T11:27:54;2.80;;;2.60;;
50012;SDS011;35901;48.694;9.476;2023-04-15T11:30:21;5.00;;;3.23;;
50012;SDS011;35901;48.694;9.476;2023-04-15T11:32:48;4.27;;;3.20;;
50012;SDS011;35901;48.694;9.476;2023-04-15T11:35:15;3.57;;;3.10;;
50012;SDS011;35901;48.694;9.476;2023-04-15T11:37:42;5.00;;;2.90;;
50012;SDS011;35901;48.694;9.476;2023-04-15T11:40:09;3.50;;;2.67;;
50012;SDS011;35901;48.694;9.476;2023-04-15T11:42:35;3.67;;;2.80;;
50012;SDS011;35901;48.694;9.476;2023-04-15T11:45:14;4.87;;;2.80;;
50012;SDS011;35901;48.694;9.476;2023-04-15T11:47:40;3.17;;;2.70;;
50012;SDS011;35901;48.694;9.476;2023-04-15T11:50:13;4.07;;;3.17;;
50012;SDS011;35901;48.694;9.476;2023-04-15T11:52:39;4.47;;;3.17;;
50012;SDS011;35901;48.694;9.476;2023-04-15T11:55:05;4.47;;;3.17;;
50012;SDS011;35901;48.694;9.476;2023-04-15T11:57:33;4.47;;;2.87;;
50012;SDS011;35901;48.694;9.476;2023-04-15T11:59:59;3.07;;;2.77;;
50012;SDS011;35901;48.694;9.476;2023-04-15T12:02:35;4.73;;;2.60;;
50012;SDS011;35901;48.694;9.476;2023-04-15T12:05:04;3.93;;;2.67;;
50012;SDS011;35901;48.694;9.476;2023-04-15T12:07:30;3.60;;;2.40;;
50012;SDS011;35901;48.694;9.476;2023-04-15T12:09:57;5.57;;;2.90;;
50012;SDS011;35901;48.694;9.476;2023-04-15T12:12:29;4.83;;;2.60;;
50012;SDS011;35901;48.694;9.476;2023-04-15T12:14:57;3.77;;;2.70;;
50012;SDS011;35901;48.694;9.476;2023-04-15T12:17:24;3.23;;;2.77;;
50012;SDS011;35901;48.694;9.476;2023-04-15T12:19:54;6.93;;;3.63;;
50012;SDS011;35901;48.694;9.476;2023-04-15T12:22:20;4.40;;;3.40;;
50012;SDS011;35901;48.694;9.476;2023-04-15T12:24:47;4.07;;;3.20;;
50012;SDS011;35901;48.694;9.476;2023-04-15T12:27:24;3.53;;;2.80;;
50012;SDS011;35901;48.694;9.476;2023-04-15T12:29:51;5.10;;;3.33;;
50012;SDS011;35901;48.694;9.476;2023-04-15T12:32:33;5.50;;;2.70;;
50012;SDS011;35901;48.694;9.476;2023-04-15T12:34:59;3.83;;;3.50;;
50012;SDS011;35901;48.694;9.476;2023-04-15T12:37:25;7.30;;;3.27;;
50012;SDS011;35901;48.694;9.476;2023-04-15T12:39:51;3.37;;;3.00;;
50012;SDS011;35901;48.694;9.476;2023-04-15T12:42:18;5.40;;;3.23;;
50012;SDS011;35901;48.694;9.476;2023-04-15T12:44:44;4.53;;;3.10;;
50012;SDS011;35901;48.694;9.476;2023-04-15T12:47:10;4.43;;;2.90;;
50012;SDS011;35901;48.694;9.476;2023-04-15T12:49:37;4.07;;;2.93;;
50012;SDS011;35901;48.694;9.476;2023-04-15T12:52:03;3.87;;;2.70;;
50012;SDS011;35901;48.694;9.476;2023-04-15T12:54:30;4.80;;;2.80;;
50012;SDS011;35901;48.694;9.476;2023-04-15T12:56:56;3.53;;;2.40;;
50012;SDS011;35901;48.694;9.476;2023-04-15T12:59:22;5.10;;;3.47;;
50012;SDS011;35901;48.694;9.476;2023-04-15T13:01:49;4.67;;;2.87;;
50012;SDS011;35901;48.694;9.476;2023-04-15T13:04:16;3.10;;;2.77;;
50012;SDS011;35901;48.694;9.476;2023-04-15T13:06:42;7.20;;;3.00;;
50012;SDS011;35901;48.694;9.476;2023-04-15T13:09:07;4.27;;;2.37;;
50012;SDS011;35901;48.694;9.476;2023-04-15T13:11:33;3.33;;;2.70;;
50012;SDS011;35901;48.694;9.476;2023-04-15T13:14:00;3.93;;;2.50;;
50012;SDS011;35901;48.694;9.476;2023-04-15T13:16:26;4.43;;;3.10;;
50012;SDS011;35901;48.694;9.476;2023-04-15T13:18:52;2.83;;;2.63;;
50012;SDS011;35901;48.694;9.476;2023-04-15T13:21:18;3.90;;;2.90;;
50012;SDS011;35901;48.694;9.476;2023-04-15T13:23:44;2.90;;;2.60;;
50012;SDS011;35901;48.694;9.476;2023-04-15T13:26:10;3.27;;;2.70;;
50012;SDS011;35901;48.694;9.476;2023-04-15T13:28:35;4.57;;;2.53;;
50012;SDS011;35901;48.694;9.476;2023-04-15T13:31:01;3.37;;;2.40;;
50012;SDS011;35901;48.694;9.476;2023-04-15T13:33:27;3.73;;;2.17;;
50012;SDS011;35901;48.694;9.476;2023-04-15T13:35:52;3.77;;;2.13;;
50012;SDS011;35901;48.694;9.476;2023-04-15T13:38:18;2.23;;;2.03;;
50012;SDS011;35901;48.694;9.476;2023-04-15T13:40:44;3.33;;;2.20;;
50012;SDS011;35901;48.694;9.476;2023-04-15T13:43:10;2.60;;;1.90;;
50012;SDS011;35901;48.694;9.476;2023-04-15T13:45:36;2.20;;;1.90;;
50012;SDS011;35901;48.694;9.476;2023-04-15T13:48:02;2.60;;;1.90;;
50012;SDS011;35901;48.694;9.476;2023-04-15T13:50:29;2.43;;;1.90;;
50012;SDS011;35901;48.694;9.476;2023-04-15T13:52:55;2.07;;;1.87;;
50012;SDS011;35901;48.694;9.476;2023-04-15T13:55:20;1.67;;;1.57;;
50012;SDS011;35901;48.694;9.476;2023-04-15T13:57:46;2.33;;;1.60;;
50012;SDS011;35901;48.694;9.476;2023-04-15T14:00:11;1.87;;;1.60;;
50012;SDS011;35901;48.694;9.476;2023-04-15T14:02:38;1.87;;;1.60;;
50012;SDS011;35901;48.694;9.476;2023-04-15T14:05:05;2.00;;;1.80;;
50012;SDS011;35901;48.694;9.476;2023-04-15T14:07:31;1.83;;;1.70;;
50012;SDS011;35901;48.694;9.476;2023-04-15T14:09:57;3.20;;;1.90;;
50012;SDS011;35901;48.694;9.476;2023-04-15T14:12:22;2.63;;;1.90;;
50012;SDS011;35901;48.694;9.476;2023-04-15T14:14:48;3.73;;;2.90;;
50012;SDS011;35901;48.694;9.476;2023-04-15T14:17:13;4.47;;;3.67;;
50012;SDS011;35901;48.694;9.476;2023-04-15T14:19:39;3.30;;;3.00;;
50012;SDS011;35901;48.694;9.476;2023-04-15T14:22:04;5.03;;;2.90;;
50012;SDS011;35901;48.694;9.476;2023-04-15T14:24:30;2.70;;;2.50;;
50012;SDS011;35901;48.694;9.476;2023-04-15T14:26:56;3.63;;;2.97;;
50012;SDS011;35901;48.694;9.476;2023-04-15T14:29:23;15.73;;;11.23;;
50012;SDS011;35901;48.694;9.476;2023-04-15T14:31:48;7.97;;;5.50;;
50012;SDS011;35901;48.694;9.476;2023-04-15T14:34:14;5.43;;;3.53;;
50012;SDS011;35901;48.694;9.476;2023-04-15T14:36:40;4.13;;;3.73;;
50012;SDS011;35901;48.694;9.476;2023-04-15T14:39:06;3.63;;;3.10;;
50012;SDS011;35901;48.694;9.476;2023-04-15T14:41:32;3.03;;;2.13;;
50012;SDS011;35901;48.694;9.476;2023-04-15T14:43:58;2.93;;;2.20;;
50012;SDS011;35901;48.694;9.476;2023-04-15T14:46:24;2.37;;;2.00;;
50012;SDS011;35901;48.694;9.476;2023-04-15T14:48:50;2.90;;;1.77;;
50012;SDS011;35901;48.694;9.476;2023-04-15T14:51:16;2.20;;;1.40;;
50012;SDS011;35901;48.694;9.476;2023-04-15T14:53:42;1.80;;;1.30;;
50012;SDS011;35901;48.694;9.476;2023-04-15T14:56:08;2.17;;;1.20;;
50012;SDS011;35901;48.694;9.476;2023-04-15T14:58:34;1.83;;;1.30;;
50012;SDS011;35901;48.694;9.476;2023-04-15T15:01:00;4.00;;;2.47;;
50012;SDS011;35901;48.694;9.476;2023-04-15T15:03:26;2.93;;;2.63;;